SLSA/SBL METAR and TAF weather

Enter ICAO airport designator
Station Type Date Time Source
SLSA METAR 2018/12/10 13:00 UTC NOAA

SLSA 101300Z 32006KT 9999 FEW015 SCT080 30/25 Q1014


Station Type Date Time Source
SLSA Decoded METAR 2018/12/10 13:00 UTC NOAA

Santa Ana, Bolivia (SLSA) 13-46S 065-26W
Dec 10, 2018 - 08:00 AM EST / 2018.12.10 1300 UTC
Wind: from the NW (320 degrees) at 7 MPH (6 KT):0
Visibility: greater than 7 mile(s):0
Sky conditions: partly cloudy
Temperature: 86 F (30 C)
Heat index: 96.8 F (36.0 C):1
Dew Point: 77 F (25 C)
Relative Humidity: 74%
Pressure (altimeter): 29.94 in. Hg (1014 hPa)
ob: SLSA 101300Z 32006KT 9999 FEW015 SCT080 30/25 Q1014
cycle: 13

Station Type Date Time Source
SLSA TAF 2009/01/07 11:00 UTC NOAA

METAR SLSA 071100Z 00000KT 9999 FEW020 BKN080 26/24 Q1009


Example: see airport list